Time;durP1;ratioP1;P1;durP2;ratioP2;P2;SDS_P1;SDS_P2;PMS_P1;PMS_P2;Temp;Humidity;BMP_temperature;BMP_pressure;BME280_temperature;BME280_humidity;BME280_pressure;Samples;Min_cycle;Max_cycle;Signal;HPM_P1;HPM_P2
2021/03/01 00:00:15;;;;;;;16.98;7.70;;;;;;;1.83;69.10;98002.66;4957364;28;20149;-61
2021/03/01 00:02:41;;;;;;;14.05;7.82;;;;;;;1.85;69.09;97997.00;4968034;28;20043;-61
2021/03/01 00:05:09;;;;;;;15.02;7.05;;;;;;;1.74;69.72;98008.94;4987547;28;20041;-60
2021/03/01 00:07:35;;;;;;;14.95;7.57;;;;;;;1.79;69.25;98003.50;4999052;28;20045;-60
2021/03/01 00:10:00;;;;;;;15.52;6.90;;;;;;;1.69;69.58;98007.88;4991098;28;20050;-60
2021/03/01 00:12:26;;;;;;;16.08;8.27;;;;;;;1.66;69.85;97999.53;4982465;28;20738;-58
2021/03/01 00:14:52;;;;;;;15.27;7.45;;;;;;;1.57;70.16;98004.69;4980778;28;20399;-59
2021/03/01 00:17:17;;;;;;;16.35;7.88;;;;;;;1.52;70.81;97996.59;4975914;28;20057;-60
2021/03/01 00:19:42;;;;;;;14.88;7.32;;;;;;;1.50;71.11;97996.88;4981913;28;20046;-61
2021/03/01 00:22:08;;;;;;;13.48;6.78;;;;;;;1.54;70.91;97994.44;4983119;28;20172;-61
2021/03/01 00:24:33;;;;;;;13.88;7.22;;;;;;;1.51;70.60;97994.97;4976410;28;20511;-60
2021/03/01 00:26:59;;;;;;;13.38;6.43;;;;;;;1.42;70.91;97994.72;4990843;28;20126;-58
2021/03/01 00:29:24;;;;;;;15.43;7.00;;;;;;;1.49;70.81;97994.44;4973968;28;20073;-59
2021/03/01 00:31:49;;;;;;;15.40;6.85;;;;;;;1.55;71.24;98001.44;4980959;28;20494;-61
2021/03/01 00:34:15;;;;;;;15.45;7.93;;;;;;;1.56;71.04;97994.16;4975162;28;20531;-61
2021/03/01 00:36:40;;;;;;;17.90;8.10;;;;;;;1.48;71.45;98001.75;4963149;28;20038;-61
2021/03/01 00:39:05;;;;;;;13.25;7.25;;;;;;;1.46;71.60;98003.09;4976763;28;20161;-61
2021/03/01 00:41:31;;;;;;;13.60;7.50;;;;;;;1.49;71.14;98002.53;4979862;28;20053;-61
2021/03/01 00:43:56;;;;;;;18.65;8.45;;;;;;;1.48;71.25;97999.03;4980433;28;20046;-61
2021/03/01 00:46:21;;;;;;;16.73;7.78;;;;;;;1.45;71.73;98004.19;4975840;28;20527;-61
2021/03/01 00:48:47;;;;;;;16.63;8.20;;;;;;;1.55;70.88;97995.22;4994036;28;20042;-59
2021/03/01 00:51:12;;;;;;;14.77;7.63;;;;;;;1.56;71.10;98000.34;5001175;28;20050;-61
2021/03/01 00:53:37;;;;;;;15.00;7.60;;;;;;;1.50;71.08;97999.56;5000137;28;20045;-62
2021/03/01 00:56:03;;;;;;;14.25;7.82;;;;;;;1.49;70.90;98002.53;5017558;28;20065;-60
2021/03/01 00:58:29;;;;;;;19.20;7.93;;;;;;;1.48;70.88;98006.34;5002064;28;20049;-60
2021/03/01 01:00:54;;;;;;;15.85;7.32;;;;;;;1.50;70.96;98004.16;5003657;28;20513;-62
2021/03/01 01:03:20;;;;;;;15.75;8.52;;;;;;;1.35;71.91;97996.91;4998487;28;20374;-61
2021/03/01 01:05:46;;;;;;;17.02;8.02;;;;;;;1.37;71.94;98002.03;5003603;28;20034;-60
2021/03/01 01:08:12;;;;;;;15.13;7.80;;;;;;;1.30;71.94;97995.03;4998671;28;20683;-58
2021/03/01 01:10:38;;;;;;;17.52;7.90;;;;;;;1.19;72.40;97995.34;5003326;28;20046;-63
2021/03/01 01:13:05;;;;;;;15.48;7.63;;;;;;;1.09;72.91;98004.28;4981202;28;20041;-61
2021/03/01 01:15:31;;;;;;;14.02;7.55;;;;;;;1.02;72.66;98003.75;5003644;28;20046;-61
2021/03/01 01:17:56;;;;;;;14.45;7.25;;;;;;;0.93;73.06;98006.19;5003278;28;20180;-60
2021/03/01 01:20:22;;;;;;;17.55;8.50;;;;;;;0.91;73.91;98005.66;4992489;28;21022;-61
2021/03/01 01:22:47;;;;;;;15.73;7.90;;;;;;;0.85;73.88;98012.94;4986129;28;20038;-59
2021/03/01 01:25:14;;;;;;;16.10;7.55;;;;;;;0.86;73.68;98009.16;5002967;28;20038;-61
2021/03/01 01:27:40;;;;;;;17.95;9.27;;;;;;;0.91;73.76;98008.34;4992089;28;20042;-61
2021/03/01 01:30:10;;;;;;;20.48;9.80;;;;;;;0.97;74.04;98004.53;4996980;28;20105;-60
2021/03/01 01:32:36;;;;;;;19.13;9.50;;;;;;;0.97;73.56;97999.16;4994032;28;20057;-61
2021/03/01 01:35:07;;;;;;;21.35;8.05;;;;;;;0.89;74.13;98008.59;4987331;28;20049;-62
2021/03/01 01:37:32;;;;;;;17.80;8.35;;;;;;;0.82;74.40;97996.50;4952493;28;20491;-58
2021/03/01 01:39:57;;;;;;;16.40;8.15;;;;;;;0.84;74.07;98000.53;4965756;28;20046;-62
2021/03/01 01:42:23;;;;;;;18.48;8.48;;;;;;;0.84;73.80;97992.44;4978219;28;20081;-61
2021/03/01 01:44:48;;;;;;;19.15;7.65;;;;;;;0.74;74.45;97995.16;4966715;28;20138;-58
2021/03/01 01:47:14;;;;;;;19.40;8.50;;;;;;;0.74;74.53;97995.16;4983012;28;20049;-60
2021/03/01 01:49:39;;;;;;;17.30;7.90;;;;;;;0.76;74.13;97991.09;5003220;28;20064;-60
2021/03/01 01:52:05;;;;;;;15.40;7.40;;;;;;;0.72;74.47;97987.34;4998947;28;20037;-61
2021/03/01 01:54:31;;;;;;;16.63;8.50;;;;;;;0.69;74.22;97984.38;5002431;28;20073;-60
2021/03/01 01:56:57;;;;;;;13.40;7.00;;;;;;;0.70;74.29;97989.50;5002994;28;20096;-60
2021/03/01 01:59:22;;;;;;;15.13;7.53;;;;;;;0.63;74.76;97982.72;4997297;28;20934;-61
2021/03/01 02:01:49;;;;;;;18.08;8.50;;;;;;;0.63;74.30;97982.72;5000433;28;20053;-59
2021/03/01 02:04:20;;;;;;;15.98;8.48;;;;;;;0.63;74.66;97975.47;4997388;28;20041;-60
2021/03/01 02:06:52;;;;;;;19.58;8.68;;;;;;;0.50;74.98;97984.09;4997720;28;20048;-61
2021/03/01 02:09:36;;;;;;;16.92;7.88;;;;;;;0.40;75.28;97982.22;4997994;28;20130;-61
2021/03/01 02:12:04;;;;;;;19.23;8.40;;;;;;;0.35;75.26;97977.63;5001542;28;20046;-62
2021/03/01 02:14:49;;;;;;;17.13;7.57;;;;;;;0.20;75.72;97980.31;5003020;28;20048;-59
2021/03/01 02:17:15;;;;;;;14.45;7.35;;;;;;;0.15;75.43;97975.72;4998894;28;20041;-62
2021/03/01 02:19:40;;;;;;;17.00;7.15;;;;;;;0.16;75.54;97974.66;5019090;28;20045;-63
2021/03/01 02:22:06;;;;;;;15.73;7.18;;;;;;;0.03;75.85;97982.44;5002409;28;20173;-63
2021/03/01 02:24:38;;;;;;;12.48;6.82;;;;;;;-0.11;76.20;97974.03;4986533;28;20105;-61
2021/03/01 02:27:03;;;;;;;19.42;7.95;;;;;;;-0.17;77.25;97981.31;4999311;28;20056;-61
2021/03/01 02:29:32;;;;;;;16.38;7.75;;;;;;;-0.27;77.16;97976.72;5001347;28;20073;-61
2021/03/01 02:32:00;;;;;;;16.45;7.97;;;;;;;-0.32;77.18;97974.00;4983812;28;20070;-63
2021/03/01 02:34:32;;;;;;;13.43;7.15;;;;;;;-0.54;77.37;97974.19;4978572;28;20054;-62
2021/03/01 02:37:08;;;;;;;19.35;8.02;;;;;;;-0.72;78.15;97972.78;4981513;28;20043;-63
2021/03/01 02:39:37;;;;;;;15.38;7.20;;;;;;;-0.77;79.08;97968.16;4981947;28;20061;-62
2021/03/01 02:42:06;;;;;;;15.20;7.75;;;;;;;-0.80;79.32;97967.88;4978486;28;20046;-60
2021/03/01 02:44:33;;;;;;;13.32;7.07;;;;;;;-0.88;79.15;97966.50;4982667;28;20041;-62
2021/03/01 02:46:59;;;;;;;18.50;7.63;;;;;;;-1.01;80.25;97966.94;4989016;28;20050;-61
2021/03/01 02:49:26;;;;;;;19.00;8.88;;;;;;;-1.15;80.96;97974.69;4988875;28;20892;-60
2021/03/01 02:51:52;;;;;;;18.90;9.20;;;;;;;-1.20;81.32;97975.44;4995983;28;20042;-63
2021/03/01 02:54:22;;;;;;;16.30;8.65;;;;;;;-1.14;81.41;97980.88;4993094;28;20041;-63
2021/03/01 02:56:49;;;;;;;18.70;8.90;;;;;;;-1.17;81.27;97974.94;4992689;28;20101;-60
2021/03/01 02:59:17;;;;;;;20.35;7.75;;;;;;;-1.19;81.08;97977.09;4979673;28;20046;-60
2021/03/01 03:01:43;;;;;;;18.75;8.10;;;;;;;-1.25;80.80;97974.59;4991397;28;20046;-60
2021/03/01 03:04:09;;;;;;;15.52;7.50;;;;;;;-1.27;81.13;97974.88;4989439;28;20049;-63
2021/03/01 03:06:37;;;;;;;16.45;7.13;;;;;;;-1.14;80.87;97978.97;4993098;28;20034;-61
2021/03/01 03:09:06;;;;;;;17.25;7.82;;;;;;;-1.00;80.46;97977.44;4985743;28;20056;-60
2021/03/01 03:11:33;;;;;;;15.68;7.90;;;;;;;-1.09;79.91;97978.22;4984902;28;20049;-62
2021/03/01 03:13:59;;;;;;;15.50;8.38;;;;;;;-1.00;79.62;97979.34;4982333;28;20038;-61
2021/03/01 03:16:27;;;;;;;16.17;7.60;;;;;;;-1.05;79.76;97982.78;4974553;28;20125;-60
2021/03/01 03:18:54;;;;;;;15.98;7.47;;;;;;;-1.19;79.90;97982.47;4982319;28;20053;-61
2021/03/01 03:21:22;;;;;;;14.00;7.55;;;;;;;-1.35;80.21;97980.72;4960110;28;20523;-62
2021/03/01 03:23:48;;;;;;;16.38;7.80;;;;;;;-1.45;80.71;97973.38;4989715;28;20050;-63
2021/03/01 03:26:13;;;;;;;17.10;7.82;;;;;;;-1.58;81.19;97977.31;4988994;28;20049;-61
2021/03/01 03:28:43;;;;;;;20.65;8.55;;;;;;;-1.66;81.35;97972.41;4993418;28;20046;-62
2021/03/01 03:31:10;;;;;;;16.75;8.20;;;;;;;-1.75;82.60;97979.31;4975821;28;20137;-62
2021/03/01 03:33:38;;;;;;;16.15;7.85;;;;;;;-1.82;82.70;97984.91;4996587;28;20068;-59
2021/03/01 03:36:04;;;;;;;19.15;8.73;;;;;;;-1.88;83.82;97983.22;4997815;28;20121;-59
2021/03/01 03:38:33;;;;;;;22.17;8.45;;;;;;;-1.80;84.01;97990.00;4993027;28;20129;-61
2021/03/01 03:41:01;;;;;;;21.25;9.38;;;;;;;-1.84;83.36;97984.34;4962879;28;20090;-62
2021/03/01 03:43:28;;;;;;;18.23;8.90;;;;;;;-1.91;82.91;97983.72;4982404;28;20084;-62
2021/03/01 03:45:56;;;;;;;15.27;7.95;;;;;;;-1.90;83.25;97979.19;4983060;28;20105;-62
2021/03/01 03:48:23;;;;;;;20.63;8.57;;;;;;;-2.01;83.67;97987.13;4987441;28;20057;-60
2021/03/01 03:50:54;;;;;;;19.58;9.15;;;;;;;-2.00;83.76;97983.41;4998088;28;20045;-61
2021/03/01 03:53:25;;;;;;;14.55;7.30;;;;;;;-2.07;83.13;97985.47;4983994;28;20101;-63
2021/03/01 03:55:53;;;;;;;17.05;8.73;;;;;;;-2.12;83.77;97982.75;5004981;28;20053;-63
2021/03/01 03:58:23;;;;;;;21.20;10.07;;;;;;;-2.14;84.81;97987.56;4981148;28;20387;-62
2021/03/01 04:00:50;;;;;;;;;;;;;;;-2.27;83.68;97985.25;4993377;28;20069;-62
2021/03/01 04:03:18;;;;;;;14.57;7.78;;;;;;;-2.21;84.00;97986.94;4989983;28;19921;-62
2021/03/01 04:05:46;;;;;;;18.52;8.35;;;;;;;-2.21;84.46;97989.63;4988918;28;20434;-62
2021/03/01 04:08:14;;;;;;;16.35;8.65;;;;;;;-2.26;84.02;97986.88;4976715;28;20053;-65
2021/03/01 04:10:47;;;;;;;15.15;7.82;;;;;;;-2.36;84.68;97988.41;4979973;28;20429;-62
2021/03/01 04:13:13;;;;;;;16.83;8.40;;;;;;;-2.30;85.10;97994.63;4977519;28;20034;-62
2021/03/01 04:15:46;;;;;;;18.15;7.88;;;;;;;-2.25;84.72;97993.84;4988303;28;20050;-63
2021/03/01 04:18:15;;;;;;;14.70;7.40;;;;;;;-2.22;85.02;97996.03;4981960;28;20048;-63
2021/03/01 04:20:42;;;;;;;17.10;8.57;;;;;;;-2.41;83.26;97993.69;4981469;28;20038;-63
2021/03/01 04:23:08;;;;;;;15.93;7.88;;;;;;;-2.57;83.47;97991.91;4977577;28;20402;-61
2021/03/01 04:25:35;;;;;;;21.15;9.40;;;;;;;-2.60;84.04;97990.50;4984211;28;20074;-61
2021/03/01 04:28:02;;;;;;;22.15;8.50;;;;;;;-2.58;84.57;97988.38;4982025;28;20503;-61
2021/03/01 04:30:28;;;;;;;20.35;7.80;;;;;;;-2.51;84.26;97996.25;4978953;28;20073;-61
2021/03/01 04:32:55;;;;;;;14.57;7.72;;;;;;;-2.72;85.20;97997.88;4980729;28;20791;-60
2021/03/01 04:35:22;;;;;;;17.88;8.20;;;;;;;-2.86;86.11;97993.91;4980926;28;20607;-61
2021/03/01 04:37:47;;;;;;;16.77;8.10;;;;;;;-2.84;86.34;97995.31;4964003;28;20046;-59
2021/03/01 04:40:14;;;;;;;18.15;9.52;;;;;;;-2.75;85.97;97999.19;4982375;28;20044;-62
2021/03/01 04:42:43;;;;;;;17.88;9.55;;;;;;;-2.84;85.63;97999.88;4984300;28;20046;-62
2021/03/01 04:45:10;;;;;;;16.33;8.88;;;;;;;-2.96;85.70;97998.09;4976735;28;20046;-63
2021/03/01 04:47:36;;;;;;;20.25;8.93;;;;;;;-2.95;86.62;98001.59;4981143;28;20138;-63
2021/03/01 04:50:03;;;;;;;22.63;9.45;;;;;;;-3.05;87.52;98002.25;4979821;28;20446;-61
2021/03/01 04:52:31;;;;;;;21.95;8.90;;;;;;;-3.10;88.61;97997.66;4979081;28;20054;-62
2021/03/01 04:55:00;;;;;;;22.58;10.02;;;;;;;-3.12;88.63;97993.56;4987865;28;20154;-62
2021/03/01 04:57:26;;;;;;;20.73;9.50;;;;;;;-3.22;89.59;97996.09;4976237;28;20046;-61
2021/03/01 04:59:52;;;;;;;21.33;9.20;;;;;;;-3.21;90.18;98005.78;4987672;28;20120;-61
2021/03/01 05:02:19;;;;;;;22.83;10.70;;;;;;;-3.23;90.25;98000.66;4988013;28;20494;-61
2021/03/01 05:04:44;;;;;;;27.20;10.02;;;;;;;-3.06;90.13;97995.28;4998416;28;20141;-61
2021/03/01 05:07:10;;;;;;;20.75;10.27;;;;;;;-2.86;89.75;98005.47;4990040;28;20130;-60
2021/03/01 05:09:38;;;;;;;22.30;10.30;;;;;;;-2.83;89.57;97993.44;4996433;28;20076;-61
2021/03/01 05:12:04;;;;;;;19.40;9.38;;;;;;;-2.75;89.39;97988.47;4976047;28;20045;-60
2021/03/01 05:17:01;;;;;;;22.13;9.90;;;;;;;-2.55;88.56;98001.31;4984154;28;20057;-65
2021/03/01 05:19:26;;;;;;;22.63;9.30;;;;;;;-2.42;87.61;97999.31;4984785;28;20196;-66
2021/03/01 05:21:51;;;;;;;19.80;9.15;;;;;;;-2.60;86.83;97998.56;4981495;28;20141;-66
2021/03/01 05:24:17;;;;;;;19.45;8.60;;;;;;;-2.57;86.49;98002.63;4976144;28;20046;-65
2021/03/01 05:26:42;;;;;;;19.90;8.93;;;;;;;-2.53;86.06;97996.50;4982464;28;20038;-64
2021/03/01 05:29:08;;;;;;;20.90;8.73;;;;;;;-2.51;85.64;97989.00;4979084;28;20045;-60
2021/03/01 05:31:33;;;;;;;18.58;9.15;;;;;;;-2.57;85.26;97994.59;4977974;28;20113;-67
2021/03/01 05:33:59;;;;;;;17.92;8.65;;;;;;;-2.66;85.37;97994.19;4966827;28;20046;-68
2021/03/01 05:36:24;;;;;;;21.00;9.68;;;;;;;-2.59;85.97;97983.25;4951877;28;20575;-65
2021/03/01 05:38:49;;;;;;;20.63;9.38;;;;;;;-2.65;85.62;97986.97;4975236;28;20084;-66
2021/03/01 05:41:19;;;;;;;21.52;8.95;;;;;;;-2.78;85.22;97990.81;4991870;28;20058;-66
2021/03/01 05:43:48;;;;;;;15.70;7.70;;;;;;;-2.77;85.85;97987.09;4978518;28;20046;-65
2021/03/01 05:46:17;;;;;;;18.27;8.82;;;;;;;-2.80;85.71;97991.06;4989073;28;20406;-67
2021/03/01 05:48:44;;;;;;;20.30;9.73;;;;;;;-2.72;86.39;97993.34;5004454;28;20046;-66
2021/03/01 05:51:10;;;;;;;20.75;8.55;;;;;;;-2.73;86.77;97996.25;4981370;28;20045;-65
2021/03/01 05:53:42;;;;;;;21.38;8.75;;;;;;;-2.65;86.97;97993.13;4986443;28;20062;-66
2021/03/01 05:56:08;;;;;;;19.38;8.95;;;;;;;-2.85;85.17;98001.72;4987312;28;20031;-66
2021/03/01 05:58:34;;;;;;;18.02;8.35;;;;;;;-3.07;85.09;98010.53;4984362;28;20045;-67
2021/03/01 06:01:05;;;;;;;18.38;8.50;;;;;;;-3.04;85.87;98005.72;4990385;28;20052;-65
2021/03/01 06:03:31;;;;;;;19.00;8.48;;;;;;;-3.07;85.82;98013.22;4987412;28;20042;-67
2021/03/01 06:05:57;;;;;;;20.83;9.35;;;;;;;-3.04;86.11;98011.09;5000389;28;20046;-66
2021/03/01 06:08:26;;;;;;;17.15;8.65;;;;;;;-3.06;85.79;98019.41;5002761;28;20802;-66
2021/03/01 06:10:59;;;;;;;15.02;8.20;;;;;;;-3.07;85.92;98015.09;5005907;28;20483;-66
2021/03/01 06:13:26;;;;;;;19.75;9.00;;;;;;;-3.06;85.70;98019.41;4981309;28;20089;-64
2021/03/01 06:15:53;;;;;;;18.77;8.80;;;;;;;-3.01;85.75;98021.34;4994602;28;20047;-65
2021/03/01 06:18:18;;;;;;;20.30;9.27;;;;;;;-2.86;86.38;98016.19;4999171;28;20041;-66
2021/03/01 06:20:44;;;;;;;17.80;8.45;;;;;;;-2.83;85.65;98018.38;5002412;28;20049;-66
2021/03/01 06:23:09;;;;;;;18.25;7.88;;;;;;;-2.89;85.50;98022.06;4975040;28;20045;-66
2021/03/01 06:25:35;;;;;;;18.48;8.10;;;;;;;-3.06;86.62;98022.09;4988274;28;20602;-67
2021/03/01 06:28:07;;;;;;;22.88;9.35;;;;;;;-3.13;86.96;98024.94;4984033;28;20055;-66
2021/03/01 06:30:35;;;;;;;19.90;9.18;;;;;;;-3.10;87.12;98031.66;4987292;28;20384;-66
2021/03/01 06:33:08;;;;;;;19.13;8.93;;;;;;;-2.88;87.58;98026.38;5001788;28;20104;-64
2021/03/01 06:35:41;;;;;;;17.30;8.25;;;;;;;-2.63;86.56;98025.91;5003257;28;20060;-69
2021/03/01 06:38:26;;;;;;;20.35;9.32;;;;;;;-2.28;85.07;98024.69;4977355;28;20069;-64
2021/03/01 06:41:08;;;;;;;18.98;8.45;;;;;;;-2.04;83.96;98022.53;4994204;28;20049;-66
2021/03/01 06:43:34;;;;;;;19.13;9.18;;;;;;;-1.94;83.22;98030.72;4983884;28;20042;-67
2021/03/01 06:46:07;;;;;;;20.25;9.07;;;;;;;-1.82;83.13;98033.25;4965914;28;20141;-69
2021/03/01 06:48:32;;;;;;;20.70;9.45;;;;;;;-1.53;82.46;98038.38;4991340;28;20053;-67
2021/03/01 06:50:58;;;;;;;16.92;7.72;;;;;;;-1.31;81.75;98029.41;4996385;28;20394;-67
2021/03/01 06:53:24;;;;;;;21.85;9.07;;;;;;;-0.74;81.50;98031.38;4987483;28;20535;-67
2021/03/01 06:56:05;;;;;;;20.15;9.57;;;;;;;0.20;78.97;98028.81;4995096;28;20042;-67
2021/03/01 06:58:38;;;;;;;21.40;10.07;;;;;;;1.46;73.17;98032.78;5001273;28;20409;-68
2021/03/01 07:01:06;;;;;;;20.98;10.32;;;;;;;2.49;68.19;98033.13;5000161;28;20085;-64
2021/03/01 07:03:32;;;;;;;17.60;9.25;;;;;;;3.69;63.74;98029.84;5006992;28;20442;-68
2021/03/01 07:06:00;;;;;;;18.73;8.50;;;;;;;4.12;61.85;98026.31;4999279;28;20050;-66
2021/03/01 07:08:54;;;;;;;18.58;8.88;;;;;;;4.74;58.05;98031.66;4984874;28;20043;-67
2021/03/01 07:11:37;;;;;;;20.50;10.38;;;;;;;5.92;55.12;98030.34;4983461;28;20038;-68
2021/03/01 07:14:05;;;;;;;16.75;7.97;;;;;;;6.38;53.46;98020.41;4978778;28;20225;-63
2021/03/01 07:16:34;;;;;;;15.40;7.85;;;;;;;6.62;51.97;98025.56;4991515;28;20046;-69
2021/03/01 07:18:59;;;;;;;16.25;7.90;;;;;;;7.12;49.42;98021.91;5007943;28;20351;-65
2021/03/01 07:21:26;;;;;;;16.20;7.97;;;;;;;7.64;50.27;98022.16;5006774;28;20042;-66
2021/03/01 07:23:53;;;;;;;17.20;8.13;;;;;;;5.31;54.93;98026.91;4982992;28;20057;-65
2021/03/01 07:26:18;;;;;;;13.63;7.53;;;;;;;6.13;53.07;98024.50;4987426;28;20066;-66
2021/03/01 07:28:51;;;;;;;14.60;7.32;;;;;;;6.28;53.96;98023.34;5002418;28;20510;-66
2021/03/01 07:31:17;;;;;;;14.60;7.68;;;;;;;6.44;52.85;98021.91;4990574;28;20046;-63
2021/03/01 07:33:43;;;;;;;14.55;7.13;;;;;;;6.73;53.18;98017.16;5001903;28;20046;-67
2021/03/01 07:36:11;;;;;;;16.98;7.20;;;;;;;6.42;53.56;98023.31;4994462;28;20056;-66
2021/03/01 07:38:36;;;;;;;13.15;7.97;;;;;;;7.28;50.63;98023.13;4992141;28;20045;-64
2021/03/01 07:41:03;;;;;;;15.57;8.23;;;;;;;7.90;50.27;98020.66;4993993;28;20625;-63
2021/03/01 07:43:40;;;;;;;24.75;9.68;;;;;;;7.75;48.78;98017.25;4994502;28;20160;-64
2021/03/01 07:46:06;;;;;;;20.77;11.00;;;;;;;8.53;47.73;98013.88;4987234;28;20057;-65
2021/03/01 07:48:38;;;;;;;13.95;8.65;;;;;;;9.61;45.39;98021.25;4982878;28;20038;-64
2021/03/01 07:51:04;;;;;;;15.18;7.55;;;;;;;10.86;42.43;98017.09;5000081;28;20506;-65
2021/03/01 07:53:44;;;;;;;15.13;9.80;;;;;;;11.42;40.67;98018.66;4990188;28;20042;-64
2021/03/01 07:56:24;;;;;;;17.67;7.78;;;;;;;12.18;39.17;98021.91;4957894;28;20431;-64
2021/03/01 07:59:10;;;;;;;18.23;9.25;;;;;;;11.29;41.27;98013.13;4988650;28;20050;-65
2021/03/01 08:01:36;;;;;;;18.83;9.00;;;;;;;10.63;41.83;98022.13;4988223;28;20046;-65
2021/03/01 08:04:03;;;;;;;17.40;8.73;;;;;;;10.82;41.81;98015.34;4997293;28;20172;-63
2021/03/01 08:06:57;;;;;;;13.85;8.93;;;;;;;11.48;40.55;98018.06;4989505;28;21002;-64
2021/03/01 08:09:53;;;;;;;15.68;9.40;;;;;;;10.77;42.53;98023.78;4983108;28;20061;-65
2021/03/01 08:12:24;;;;;;;17.70;8.10;;;;;;;10.54;42.72;98028.81;4988569;28;20592;-65
2021/03/01 08:14:53;;;;;;;14.25;8.63;;;;;;;11.46;40.75;98017.63;5001967;28;20513;-64
2021/03/01 08:17:24;;;;;;;14.88;9.07;;;;;;;11.51;40.65;98024.03;4996931;28;20402;-68
2021/03/01 08:19:49;;;;;;;17.15;8.90;;;;;;;12.32;38.25;98016.09;5001064;28;20132;-67
2021/03/01 08:22:15;;;;;;;19.25;10.93;;;;;;;10.42;41.78;98026.81;4998648;28;20069;-66
2021/03/01 08:24:47;;;;;;;17.85;9.90;;;;;;;12.28;39.37;98018.72;4994539;28;20042;-67
2021/03/01 08:27:25;;;;;;;20.23;9.77;;;;;;;13.16;37.18;98012.56;4975482;28;20076;-65
2021/03/01 08:30:22;;;;;;;20.25;9.43;;;;;;;12.34;38.49;98013.78;4989887;28;20046;-64
2021/03/01 08:33:06;;;;;;;13.82;8.32;;;;;;;13.08;36.82;98013.56;4990607;28;20053;-64
2021/03/01 08:35:32;;;;;;;15.82;8.98;;;;;;;13.59;36.00;98016.47;4996801;28;20391;-65
2021/03/01 08:37:57;;;;;;;15.98;8.75;;;;;;;11.11;41.13;98006.25;4997670;28;20045;-65
2021/03/01 08:40:23;;;;;;;14.40;9.32;;;;;;;11.99;38.65;98014.25;4984857;28;20053;-66
2021/03/01 08:42:51;;;;;;;18.70;11.02;;;;;;;10.61;42.15;98016.19;4999168;28;20043;-65
2021/03/01 08:45:31;;;;;;;16.77;10.05;;;;;;;9.61;44.63;98015.78;5007290;28;20056;-65
2021/03/01 08:48:01;;;;;;;16.42;9.85;;;;;;;6.05;54.42;98015.16;5003452;28;20495;-66
2021/03/01 08:50:35;;;;;;;22.90;13.70;;;;;;;6.59;53.09;98017.22;4997387;28;20099;-64
2021/03/01 08:53:01;;;;;;;19.33;11.07;;;;;;;6.69;53.27;98009.59;5000960;28;20434;-70
2021/03/01 08:55:27;;;;;;;15.70;9.30;;;;;;;7.11;53.58;98019.50;4995670;28;20050;-65
2021/03/01 08:58:05;;;;;;;18.60;10.52;;;;;;;7.69;50.28;98012.22;5000691;28;20060;-66
2021/03/01 09:00:33;;;;;;;18.15;10.23;;;;;;;9.26;47.36;98015.91;4999747;28;20038;-63
2021/03/01 09:03:16;;;;;;;18.58;8.63;;;;;;;10.40;44.13;98007.16;5000500;28;20045;-64
2021/03/01 09:05:44;;;;;;;17.80;9.27;;;;;;;10.16;43.15;98011.31;5001050;28;20402;-66
2021/03/01 09:08:10;;;;;;;17.83;9.93;;;;;;;8.18;49.13;98013.81;4995397;28;20049;-63
2021/03/01 09:10:45;;;;;;;21.67;10.70;;;;;;;9.26;47.21;98009.63;5000156;28;20033;-65
2021/03/01 09:13:19;;;;;;;16.52;10.13;;;;;;;8.80;47.45;98015.50;4999394;28;20542;-65
2021/03/01 09:15:45;;;;;;;22.38;10.68;;;;;;;9.17;46.96;98002.25;5004613;28;20525;-64
2021/03/01 09:18:11;;;;;;;15.15;9.32;;;;;;;9.36;46.85;98012.81;4999964;28;20041;-64
2021/03/01 09:20:44;;;;;;;19.23;11.68;;;;;;;9.35;46.54;98005.72;5004043;28;20140;-65
2021/03/01 09:23:11;;;;;;;20.58;11.15;;;;;;;9.17;47.51;98012.38;4999431;28;20069;-65
2021/03/01 09:25:37;;;;;;;28.80;11.10;;;;;;;7.95;49.55;98012.31;5004633;28;20053;-65
2021/03/01 09:28:05;;;;;;;16.33;9.70;;;;;;;8.71;48.61;98011.94;5002393;28;20487;-63
2021/03/01 09:30:31;;;;;;;17.92;10.20;;;;;;;11.30;43.09;98002.97;5004032;28;20045;-64
2021/03/01 09:33:05;;;;;;;19.45;10.00;;;;;;;12.69;39.12;98002.22;5004219;28;20040;-65
2021/03/01 09:35:33;;;;;;;15.32;9.43;;;;;;;9.46;46.60;98005.38;5002659;28;20145;-65
2021/03/01 09:38:00;;;;;;;16.00;10.52;;;;;;;8.85;49.15;98014.50;5003509;28;20034;-65
2021/03/01 09:40:29;;;;;;;21.20;11.38;;;;;;;7.82;51.51;98008.59;4997939;28;20141;-65
2021/03/01 09:43:02;;;;;;;19.05;11.10;;;;;;;8.69;50.24;98007.94;4986312;28;20042;-65
2021/03/01 09:45:30;;;;;;;17.23;9.45;;;;;;;11.21;43.36;97999.50;5000634;28;20141;-64
2021/03/01 09:47:56;;;;;;;16.00;8.85;;;;;;;12.22;41.07;98004.41;4994376;28;20044;-64
2021/03/01 09:50:23;;;;;;;19.55;9.38;;;;;;;12.70;39.42;98007.38;4979471;28;20892;-65
2021/03/01 09:52:49;;;;;;;17.48;9.45;;;;;;;12.77;38.79;97998.56;4984549;28;20461;-65
2021/03/01 09:55:14;;;;;;;14.93;9.10;;;;;;;12.85;38.83;98000.34;4977963;28;20070;-65
2021/03/01 09:57:40;;;;;;;18.00;10.52;;;;;;;9.16;46.45;98000.66;4984749;28;20057;-65
2021/03/01 10:00:28;;;;;;;20.17;10.98;;;;;;;8.27;51.46;98002.91;4978445;28;20038;-61
2021/03/01 10:02:57;;;;;;;19.65;10.48;;;;;;;9.68;47.69;98001.59;4987337;28;20106;-66
2021/03/01 10:05:23;;;;;;;21.00;10.77;;;;;;;11.91;42.16;97993.22;4987246;28;20057;-62
2021/03/01 10:08:03;;;;;;;16.38;8.95;;;;;;;12.62;40.72;98000.06;4986161;28;20282;-64
2021/03/01 10:10:40;;;;;;;17.95;10.15;;;;;;;12.15;41.61;97995.13;4972099;28;20046;-62
2021/03/01 10:13:08;;;;;;;19.73;9.80;;;;;;;12.50;40.29;97991.88;4994233;28;20049;-61
2021/03/01 10:15:47;;;;;;;16.95;9.68;;;;;;;12.90;39.51;97991.06;5004928;28;20055;-63
2021/03/01 10:18:15;;;;;;;19.70;10.10;;;;;;;13.72;37.93;97986.91;4978138;28;20050;-65
2021/03/01 10:20:48;;;;;;;16.27;9.68;;;;;;;10.05;46.06;97993.69;4984817;28;20498;-64
2021/03/01 10:23:26;;;;;;;18.65;9.55;;;;;;;11.04;45.44;97984.06;4979667;28;20053;-64
2021/03/01 10:26:17;;;;;;;18.10;9.82;;;;;;;12.55;42.94;97995.19;4985274;28;20085;-64
2021/03/01 10:28:53;;;;;;;19.48;10.13;;;;;;;13.04;40.30;97988.69;4983687;28;20129;-64
2021/03/01 10:31:21;;;;;;;15.15;9.32;;;;;;;12.66;40.43;97994.69;4978581;28;20137;-65
2021/03/01 10:33:57;;;;;;;17.95;9.82;;;;;;;12.60;41.60;97985.88;4983867;28;20043;-63
2021/03/01 10:36:25;;;;;;;16.92;8.93;;;;;;;13.50;40.96;97986.38;4977953;28;21292;-65
2021/03/01 10:38:58;;;;;;;16.83;9.05;;;;;;;13.20;41.08;97992.28;4983529;28;20049;-65
2021/03/01 10:41:26;;;;;;;17.48;9.25;;;;;;;12.09;43.18;97991.84;4978876;28;20104;-66
2021/03/01 10:43:53;;;;;;;18.35;9.93;;;;;;;12.30;42.70;97982.63;4982563;28;20042;-65
2021/03/01 10:46:29;;;;;;;19.17;9.23;;;;;;;12.47;42.17;97979.63;4975119;28;20141;-66
2021/03/01 10:48:54;;;;;;;17.98;8.90;;;;;;;12.04;42.75;97990.09;4992376;28;20094;-66
2021/03/01 10:51:19;;;;;;;15.20;9.15;;;;;;;11.36;45.17;97978.84;4976861;28;20069;-65
2021/03/01 10:53:45;;;;;;;17.60;9.48;;;;;;;12.00;43.98;97980.19;5003160;28;20042;-65
2021/03/01 10:56:10;;;;;;;16.10;8.70;;;;;;;12.50;42.45;97981.69;4997290;28;20097;-64
2021/03/01 10:58:36;;;;;;;16.52;9.57;;;;;;;12.28;43.49;97971.19;5002504;28;20050;-65
2021/03/01 11:01:02;;;;;;;13.50;8.40;;;;;;;12.09;44.47;97977.31;5001294;28;20041;-60
2021/03/01 11:03:27;;;;;;;19.23;9.18;;;;;;;12.17;44.36;97977.19;5005433;28;20049;-65
2021/03/01 11:05:53;;;;;;;16.50;9.45;;;;;;;12.37;44.04;97967.19;4977968;28;20046;-65
2021/03/01 11:08:18;;;;;;;14.63;8.98;;;;;;;12.58;42.81;97972.47;4958421;28;20137;-65
2021/03/01 11:10:43;;;;;;;18.42;9.38;;;;;;;11.54;45.19;97973.97;4964694;28;20039;-63
2021/03/01 11:13:09;;;;;;;26.20;9.00;;;;;;;11.38;45.59;97973.81;4958438;28;20046;-64
2021/03/01 11:15:34;;;;;;;19.13;9.70;;;;;;;11.23;46.01;97973.34;4966769;28;20075;-65
2021/03/01 11:17:59;;;;;;;17.65;9.25;;;;;;;11.08;46.76;97966.56;4980863;28;20110;-65
2021/03/01 11:20:25;;;;;;;18.75;9.93;;;;;;;10.74;48.15;97969.66;4987416;28;20034;-65
2021/03/01 11:22:50;;;;;;;20.98;10.63;;;;;;;10.71;48.36;97963.72;4970567;28;20069;-63
2021/03/01 11:25:16;;;;;;;22.13;11.15;;;;;;;10.41;49.01;97965.75;4977654;28;20379;-64
2021/03/01 11:27:42;;;;;;;19.77;9.40;;;;;;;10.58;48.22;97959.31;4981730;28;20061;-63
2021/03/01 11:30:08;;;;;;;20.15;10.15;;;;;;;10.40;47.98;97955.13;4977211;28;20045;-61
2021/03/01 11:32:33;;;;;;;20.42;9.90;;;;;;;11.01;48.32;97957.31;4981704;28;20100;-68
2021/03/01 11:34:58;;;;;;;17.52;8.63;;;;;;;11.58;47.79;97951.00;4982547;28;20451;-66